Time;durP1;ratioP1;P1;durP2;ratioP2;P2;SDS_P1;SDS_P2;PMS_P1;PMS_P2;Temp;Humidity;BMP_temperature;BMP_pressure;BME280_temperature;BME280_humidity;BME280_pressure;Samples;Min_cycle;Max_cycle;Signal;HPM_P1;HPM_P2
2021/05/26 00:01:59;;;;;;;1.40;1.00;;;13.10;86.70;;;;;;5049399;28;20527;-68
2021/05/26 00:04:25;;;;;;;1.20;0.90;;;13.10;86.90;;;;;;5047090;28;20673;-67
2021/05/26 00:06:52;;;;;;;1.20;1.00;;;13.10;87.30;;;;;;5050697;28;20458;-68
2021/05/26 00:09:18;;;;;;;1.83;1.20;;;13.10;88.10;;;;;;5047967;28;20896;-68
2021/05/26 00:11:45;;;;;;;1.20;1.00;;;13.10;87.60;;;;;;5050582;28;20485;-69
2021/05/26 00:14:12;;;;;;;1.30;1.10;;;13.10;87.80;;;;;;5047712;28;20537;-68
2021/05/26 00:16:39;;;;;;;1.20;0.90;;;13.10;87.70;;;;;;5052823;28;20466;-67
2021/05/26 00:19:07;;;;;;;1.20;1.00;;;13.10;88.00;;;;;;5052060;28;20465;-68
2021/05/26 00:21:33;;;;;;;1.20;1.00;;;13.10;88.40;;;;;;5054450;28;20518;-68
2021/05/26 00:24:00;;;;;;;1.20;1.00;;;13.10;88.80;;;;;;5051737;28;20484;-68
2021/05/26 00:26:26;;;;;;;1.20;1.00;;;13.10;88.40;;;;;;5054430;28;20872;-68
2021/05/26 00:28:54;;;;;;;1.20;1.00;;;13.10;89.20;;;;;;5051758;28;20922;-68
2021/05/26 00:31:23;;;;;;;1.20;0.90;;;13.00;89.00;;;;;;5054216;28;20982;-68
2021/05/26 00:33:51;;;;;;;1.20;1.00;;;13.10;89.10;;;;;;5051558;28;20524;-68
2021/05/26 00:36:18;;;;;;;1.20;1.10;;;13.10;89.00;;;;;;5054120;28;20493;-67
2021/05/26 00:38:44;;;;;;;1.20;1.00;;;13.10;89.20;;;;;;5051523;28;20799;-67
2021/05/26 00:41:11;;;;;;;1.20;0.90;;;13.00;89.40;;;;;;5053865;28;20900;-68
2021/05/26 00:43:37;;;;;;;1.30;1.10;;;13.00;89.50;;;;;;5051586;28;20560;-67
2021/05/26 00:46:04;;;;;;;1.20;1.00;;;13.00;89.80;;;;;;5053872;28;20552;-68
2021/05/26 00:48:31;;;;;;;1.20;1.00;;;13.10;89.80;;;;;;5051252;28;20485;-67
2021/05/26 00:50:58;;;;;;;1.30;1.10;;;13.00;89.60;;;;;;5053609;28;20941;-68
2021/05/26 00:53:27;;;;;;;1.20;1.00;;;13.00;89.80;;;;;;5051331;28;20505;-69
2021/05/26 00:55:54;;;;;;;1.20;0.97;;;13.00;89.70;;;;;;5053566;28;20485;-69
2021/05/26 00:58:21;;;;;;;1.20;1.00;;;13.00;89.70;;;;;;5049877;28;20516;-68
2021/05/26 01:00:47;;;;;;;1.20;1.00;;;13.00;89.80;;;;;;5053554;28;20462;-68
2021/05/26 01:03:14;;;;;;;1.20;1.00;;;13.00;89.30;;;;;;5051082;28;20454;-68
2021/05/26 01:05:43;;;;;;;1.20;1.00;;;13.10;90.00;;;;;;5053391;28;20872;-68
2021/05/26 01:08:10;;;;;;;1.20;0.90;;;13.10;89.20;;;;;;5051094;28;20522;-69
2021/05/26 01:10:36;;;;;;;1.20;1.00;;;13.10;88.90;;;;;;5053499;28;20493;-68
2021/05/26 01:13:03;;;;;;;1.20;1.00;;;13.10;89.20;;;;;;5049727;28;20511;-68
2021/05/26 01:15:30;;;;;;;1.20;1.00;;;13.00;89.30;;;;;;5053296;28;20983;-69
2021/05/26 01:17:57;;;;;;;1.20;1.00;;;13.00;89.40;;;;;;5050901;28;20497;-69
2021/05/26 01:20:25;;;;;;;1.20;1.00;;;13.00;89.50;;;;;;5052220;28;20530;-68
2021/05/26 01:22:53;;;;;;;1.20;1.03;;;13.00;89.80;;;;;;5050849;28;20472;-69
2021/05/26 01:25:20;;;;;;;1.20;0.90;;;13.00;90.10;;;;;;5053696;28;20670;-68
2021/05/26 01:27:47;;;;;;;1.20;1.00;;;13.00;91.40;;;;;;5050113;28;20529;-68
2021/05/26 01:30:15;;;;;;;1.20;1.00;;;13.00;91.60;;;;;;5053410;28;20494;-69
2021/05/26 01:32:45;;;;;;;1.20;1.10;;;13.00;91.80;;;;;;5051655;28;20493;-68
2021/05/26 01:35:13;;;;;;;1.20;0.93;;;12.90;93.70;;;;;;5053038;28;20511;-68
2021/05/26 01:37:46;;;;;;;1.20;1.00;;;12.90;94.20;;;;;;5052572;28;21020;-68
2021/05/26 01:40:16;;;;;;;1.20;1.00;;;12.80;93.80;;;;;;5053083;28;20551;-68
2021/05/26 01:42:45;;;;;;;1.20;1.00;;;12.70;94.30;;;;;;5051370;28;20456;-68
2021/05/26 01:45:13;;;;;;;1.40;1.10;;;12.70;95.90;;;;;;5052782;28;20535;-68
2021/05/26 01:47:39;;;;;;;1.43;1.03;;;12.60;96.10;;;;;;5052371;28;20884;-72
2021/05/26 01:50:19;;;;;;;1.20;0.90;;;12.40;95.90;;;;;;5050539;28;20572;-68
2021/05/26 01:52:46;;;;;;;1.20;1.03;;;12.40;97.60;;;;;;5049979;28;20518;-68
2021/05/26 01:55:17;;;;;;;1.20;1.00;;;12.30;98.00;;;;;;5052762;28;20468;-68
2021/05/26 01:57:45;;;;;;;1.20;0.90;;;12.20;98.00;;;;;;5050994;28;20470;-69
2021/05/26 02:00:14;;;;;;;1.20;1.00;;;12.20;98.00;;;;;;5052694;28;20870;-68
2021/05/26 02:02:41;;;;;;;1.20;1.00;;;12.30;98.00;;;;;;5052134;28;20465;-68
2021/05/26 02:05:09;;;;;;;1.20;1.00;;;12.20;98.00;;;;;;5050340;28;20877;-69
2021/05/26 02:07:36;;;;;;;1.20;1.00;;;12.10;98.00;;;;;;5052334;28;20791;-68
2021/05/26 02:10:06;;;;;;;1.20;1.00;;;12.10;98.00;;;;;;5049925;28;20450;-68
2021/05/26 02:12:35;;;;;;;1.20;1.00;;;12.10;98.00;;;;;;5052079;28;20458;-68
2021/05/26 02:15:06;;;;;;;1.20;1.00;;;12.00;98.00;;;;;;5049860;28;20459;-67
2021/05/26 02:17:33;;;;;;;1.20;1.00;;;12.10;98.00;;;;;;5052169;28;20485;-68
2021/05/26 02:19:59;;;;;;;1.20;1.00;;;12.10;98.00;;;;;;5049929;28;20767;-68
2021/05/26 02:22:26;;;;;;;2.57;1.17;;;12.00;98.00;;;;;;5051000;28;20496;-68
2021/05/26 02:24:52;;;;;;;1.73;1.33;;;12.00;98.00;;;;;;5049430;28;20483;-67
2021/05/26 02:27:19;;;;;;;1.20;1.00;;;11.80;98.00;;;;;;5052094;28;20868;-67
2021/05/26 02:29:46;;;;;;;1.20;1.00;;;11.90;98.00;;;;;;5049364;28;20980;-68
2021/05/26 02:32:13;;;;;;;1.20;0.93;;;11.90;98.00;;;;;;5051916;28;20979;-68
2021/05/26 02:34:40;;;;;;;1.20;1.00;;;11.80;98.00;;;;;;5049531;28;20523;-68
2021/05/26 02:37:06;;;;;;;1.50;1.10;;;11.80;98.00;;;;;;5051936;28;21005;-68
2021/05/26 02:39:34;;;;;;;1.20;0.90;;;11.80;98.00;;;;;;5048398;28;20500;-68
2021/05/26 02:42:01;;;;;;;1.20;1.00;;;11.70;98.00;;;;;;5051940;28;20511;-68
2021/05/26 02:44:27;;;;;;;1.20;1.00;;;11.70;98.00;;;;;;5049275;28;20464;-68
2021/05/26 02:46:54;;;;;;;1.20;0.90;;;11.70;98.00;;;;;;5051631;28;20492;-68
2021/05/26 02:49:21;;;;;;;1.20;1.00;;;11.70;98.00;;;;;;5049002;28;20488;-67
2021/05/26 02:51:47;;;;;;;1.20;1.00;;;11.70;98.00;;;;;;5050105;28;20491;-67
2021/05/26 02:54:14;;;;;;;1.20;1.00;;;11.70;98.00;;;;;;5048934;28;20494;-68
2021/05/26 02:56:41;;;;;;;1.20;1.00;;;11.70;98.00;;;;;;5050382;28;20931;-67
2021/05/26 02:59:08;;;;;;;1.20;1.00;;;11.70;98.00;;;;;;5048822;28;20456;-68
2021/05/26 03:01:35;;;;;;;1.20;1.00;;;11.80;98.00;;;;;;5051376;28;20463;-67
2021/05/26 03:04:04;;;;;;;1.20;1.00;;;11.80;98.00;;;;;;5048905;28;20482;-68
2021/05/26 03:06:30;;;;;;;1.20;1.00;;;11.70;98.00;;;;;;5051179;28;20492;-68
2021/05/26 03:08:58;;;;;;;1.20;0.90;;;11.80;98.00;;;;;;5048970;28;20554;-68
2021/05/26 03:11:24;;;;;;;1.20;1.00;;;11.80;98.00;;;;;;5051129;28;20971;-67
2021/05/26 03:13:51;;;;;;;1.20;0.90;;;11.80;98.00;;;;;;5048549;28;20531;-68
2021/05/26 03:16:17;;;;;;;1.20;1.10;;;11.70;98.00;;;;;;5050942;28;20468;-68
2021/05/26 03:18:46;;;;;;;1.20;1.00;;;11.70;98.00;;;;;;5048608;28;20501;-68
2021/05/26 03:21:14;;;;;;;1.20;1.00;;;11.70;98.00;;;;;;5051052;28;20874;-68
2021/05/26 03:23:42;;;;;;;1.20;1.00;;;11.70;98.00;;;;;;5048451;28;20482;-68
2021/05/26 03:26:09;;;;;;;1.20;1.00;;;11.60;98.00;;;;;;5050861;28;20544;-67
2021/05/26 03:28:36;;;;;;;1.20;1.00;;;11.40;98.00;;;;;;5048716;28;20983;-68
2021/05/26 03:31:03;;;;;;;1.20;0.90;;;11.50;98.00;;;;;;5050798;28;20532;-68
2021/05/26 03:33:30;;;;;;;1.20;0.90;;;11.40;98.00;;;;;;5048217;28;20513;-67
2021/05/26 03:35:56;;;;;;;1.20;1.00;;;11.40;98.00;;;;;;5050732;28;20476;-68
2021/05/26 03:38:24;;;;;;;1.20;1.00;;;11.40;98.00;;;;;;5048233;28;20486;-69
2021/05/26 03:40:50;;;;;;;1.50;1.00;;;11.50;98.00;;;;;;5050841;28;20471;-68
2021/05/26 03:43:16;;;;;;;1.20;0.90;;;11.50;98.00;;;;;;5048239;28;20482;-68
2021/05/26 03:45:43;;;;;;;1.20;0.90;;;11.50;98.00;;;;;;5050761;28;20549;-68
2021/05/26 03:48:10;;;;;;;1.20;0.90;;;11.50;98.00;;;;;;5046857;28;20456;-68
2021/05/26 03:50:36;;;;;;;1.20;1.00;;;11.50;98.00;;;;;;5049097;28;20920;-69
2021/05/26 03:53:04;;;;;;;1.20;1.00;;;11.50;98.00;;;;;;5047875;28;20485;-68
2021/05/26 03:55:32;;;;;;;2.03;1.10;;;11.50;98.00;;;;;;5050803;28;20473;-68
2021/05/26 03:57:58;;;;;;;1.20;1.00;;;11.60;98.00;;;;;;5048350;28;20559;-69
2021/05/26 04:00:25;;;;;;;1.20;1.00;;;11.50;98.00;;;;;;5050822;28;20458;-68
2021/05/26 04:02:51;;;;;;;1.20;1.00;;;11.50;98.00;;;;;;5050627;28;20449;-68
2021/05/26 04:05:18;;;;;;;1.20;1.10;;;11.40;98.00;;;;;;5047184;28;20490;-68
2021/05/26 04:07:44;;;;;;;1.20;1.10;;;11.40;98.00;;;;;;5049319;28;20444;-67
2021/05/26 04:10:12;;;;;;;1.40;1.30;;;11.30;98.00;;;;;;5046750;28;20471;-68
2021/05/26 04:12:40;;;;;;;1.20;1.00;;;11.40;98.00;;;;;;5050376;28;20838;-68
2021/05/26 04:15:08;;;;;;;1.40;1.10;;;11.50;98.00;;;;;;5047916;28;20554;-68
2021/05/26 04:17:34;;;;;;;1.20;0.90;;;11.50;98.00;;;;;;5050365;28;20464;-68
2021/05/26 04:20:04;;;;;;;1.40;1.10;;;11.50;98.00;;;;;;5046525;28;20543;-68
2021/05/26 04:22:31;;;;;;;1.20;1.00;;;11.40;98.00;;;;;;5050051;28;20934;-68
2021/05/26 04:24:58;;;;;;;1.20;0.90;;;11.40;98.00;;;;;;5046521;28;20495;-67
2021/05/26 04:27:25;;;;;;;1.20;1.00;;;11.40;98.00;;;;;;5050392;28;20544;-68
2021/05/26 04:29:52;;;;;;;1.20;0.90;;;11.40;98.00;;;;;;5047682;28;20543;-68
2021/05/26 04:32:19;;;;;;;1.20;0.90;;;11.30;98.00;;;;;;5050288;28;20457;-68
2021/05/26 04:34:45;;;;;;;1.20;1.00;;;11.40;98.00;;;;;;5047629;28;20745;-68
2021/05/26 04:37:11;;;;;;;1.20;1.00;;;11.40;98.00;;;;;;5050241;28;20463;-68
2021/05/26 04:39:38;;;;;;;1.20;1.00;;;11.40;98.00;;;;;;5047626;28;20462;-69
2021/05/26 04:42:05;;;;;;;1.20;0.90;;;11.50;98.00;;;;;;5050259;28;21016;-68
2021/05/26 04:44:31;;;;;;;1.20;0.90;;;11.50;98.00;;;;;;5047509;28;20481;-69
2021/05/26 04:47:00;;;;;;;1.20;0.97;;;11.40;98.00;;;;;;5050263;28;20497;-68
2021/05/26 04:49:27;;;;;;;1.20;0.90;;;11.50;98.00;;;;;;5047628;28;20454;-68
2021/05/26 04:51:53;;;;;;;1.20;1.00;;;11.50;98.00;;;;;;5050132;28;20503;-68
2021/05/26 04:54:20;;;;;;;1.20;0.90;;;11.50;98.00;;;;;;5047329;28;20854;-69
2021/05/26 04:56:46;;;;;;;1.20;1.00;;;11.50;98.00;;;;;;5048960;28;20975;-68
2021/05/26 04:59:13;;;;;;;1.20;1.10;;;11.50;98.00;;;;;;5047547;28;20458;-68
2021/05/26 05:01:39;;;;;;;1.20;1.00;;;11.40;98.00;;;;;;5050144;28;20540;-68
2021/05/26 05:04:07;;;;;;;1.20;0.90;;;11.50;98.00;;;;;;5050379;28;20965;-67
2021/05/26 05:06:34;;;;;;;1.23;1.10;;;11.50;98.00;;;;;;5053661;28;20534;-68
2021/05/26 05:09:02;;;;;;;1.20;1.00;;;11.50;98.00;;;;;;5051224;28;20821;-68
2021/05/26 05:11:28;;;;;;;1.20;1.00;;;11.50;98.00;;;;;;5054093;28;20466;-69
2021/05/26 05:13:55;;;;;;;1.20;1.00;;;11.50;98.00;;;;;;5051201;28;20484;-68
2021/05/26 05:16:21;;;;;;;1.20;1.00;;;11.40;98.00;;;;;;5053559;28;20882;-68
2021/05/26 05:18:48;;;;;;;1.20;1.00;;;11.40;98.00;;;;;;5051376;28;20517;-69
2021/05/26 05:21:15;;;;;;;1.20;0.90;;;11.40;98.00;;;;;;5053498;28;20907;-68
2021/05/26 05:23:41;;;;;;;1.20;1.00;;;11.40;98.00;;;;;;5050982;28;20514;-68
2021/05/26 05:26:08;;;;;;;1.40;1.20;;;11.40;98.00;;;;;;5053366;28;20865;-68
2021/05/26 05:28:34;;;;;;;1.20;1.00;;;11.30;98.00;;;;;;5050742;28;20503;-68
2021/05/26 05:31:01;;;;;;;1.87;1.67;;;11.20;98.00;;;;;;5053234;28;20479;-69
2021/05/26 05:33:28;;;;;;;1.20;0.90;;;11.30;98.00;;;;;;5051021;28;20574;-68
2021/05/26 05:35:55;;;;;;;1.20;0.90;;;11.30;98.00;;;;;;5053039;28;20495;-69
2021/05/26 05:38:22;;;;;;;1.20;1.00;;;11.30;98.00;;;;;;5050676;28;20467;-69
2021/05/26 05:40:49;;;;;;;1.20;1.03;;;11.30;98.00;;;;;;5053106;28;20458;-68
2021/05/26 05:43:15;;;;;;;1.20;1.00;;;11.20;98.00;;;;;;5049481;28;20916;-68
2021/05/26 05:45:42;;;;;;;1.20;0.90;;;11.20;98.00;;;;;;5051787;28;20469;-68
2021/05/26 05:48:09;;;;;;;1.20;1.00;;;11.20;98.00;;;;;;5049230;28;20867;-69
2021/05/26 05:50:35;;;;;;;2.60;1.60;;;11.20;98.00;;;;;;5052726;28;20501;-68
2021/05/26 05:53:04;;;;;;;1.20;1.00;;;11.20;98.00;;;;;;5052540;28;20534;-67
2021/05/26 05:55:31;;;;;;;1.40;1.10;;;11.20;98.00;;;;;;5050981;28;20466;-69
2021/05/26 05:58:01;;;;;;;1.20;1.00;;;11.30;98.00;;;;;;5051590;28;20456;-68
2021/05/26 06:00:28;;;;;;;1.20;0.90;;;11.20;98.00;;;;;;5050507;28;21161;-68
2021/05/26 06:02:55;;;;;;;1.20;1.00;;;11.30;98.00;;;;;;5052690;28;20504;-69
2021/05/26 06:05:21;;;;;;;1.20;1.00;;;11.30;98.00;;;;;;5050519;28;20530;-68
2021/05/26 06:07:48;;;;;;;2.40;1.20;;;11.30;98.00;;;;;;5051828;28;20459;-68
2021/05/26 06:10:15;;;;;;;1.30;1.07;;;11.30;98.00;;;;;;5051530;28;20535;-68
2021/05/26 06:12:42;;;;;;;1.20;1.10;;;11.40;98.00;;;;;;5052664;28;20463;-68
2021/05/26 06:15:10;;;;;;;1.20;1.00;;;11.50;98.00;;;;;;5051532;28;20469;-69
2021/05/26 06:17:36;;;;;;;1.20;1.00;;;11.50;98.00;;;;;;5052844;28;20488;-68
2021/05/26 06:20:04;;;;;;;1.20;1.00;;;11.40;98.00;;;;;;5050344;28;20463;-69
2021/05/26 06:22:30;;;;;;;1.20;0.90;;;11.40;98.00;;;;;;5052596;28;20497;-68
2021/05/26 06:24:57;;;;;;;1.20;1.00;;;11.40;98.00;;;;;;5050215;28;20492;-69
2021/05/26 06:27:23;;;;;;;1.20;1.00;;;11.40;98.00;;;;;;5052661;28;20456;-69
2021/05/26 06:29:51;;;;;;;1.20;0.90;;;11.50;98.00;;;;;;5050136;28;20943;-68
2021/05/26 06:32:17;;;;;;;1.20;0.90;;;11.60;98.00;;;;;;5051016;28;20483;-69
2021/05/26 06:34:44;;;;;;;1.30;1.10;;;11.60;98.00;;;;;;5050209;28;20517;-68
2021/05/26 06:37:10;;;;;;;1.20;1.00;;;11.50;98.00;;;;;;5052194;28;20461;-69
2021/05/26 06:39:37;;;;;;;1.20;1.00;;;11.60;98.00;;;;;;5049657;28;20496;-69
2021/05/26 06:42:04;;;;;;;1.20;1.00;;;11.70;98.00;;;;;;5052145;28;20487;-69
2021/05/26 06:44:31;;;;;;;1.20;0.90;;;11.70;98.00;;;;;;5048603;28;20463;-70
2021/05/26 06:46:58;;;;;;;1.50;1.10;;;11.70;98.00;;;;;;5051800;28;20991;-70
2021/05/26 06:49:25;;;;;;;1.30;1.10;;;11.80;98.00;;;;;;5049955;28;20485;-69
2021/05/26 06:51:54;;;;;;;1.20;1.10;;;11.70;98.00;;;;;;5051475;28;21144;-69
2021/05/26 06:54:20;;;;;;;1.20;1.00;;;11.70;98.00;;;;;;5048360;28;20552;-70
2021/05/26 06:56:47;;;;;;;1.20;1.00;;;11.70;98.00;;;;;;5051670;28;20468;-68
2021/05/26 06:59:14;;;;;;;1.20;1.00;;;11.80;98.00;;;;;;5049291;28;20511;-70
2021/05/26 07:01:40;;;;;;;1.20;0.90;;;11.80;98.00;;;;;;5051608;28;20533;-69
2021/05/26 07:04:08;;;;;;;1.20;1.00;;;11.80;98.00;;;;;;5049343;28;20881;-70
2021/05/26 07:06:34;;;;;;;1.20;0.97;;;11.80;98.00;;;;;;5051407;28;20559;-69
2021/05/26 07:09:01;;;;;;;1.20;1.00;;;11.80;98.00;;;;;;5049293;28;20572;-69
2021/05/26 07:11:27;;;;;;;1.20;1.00;;;11.80;98.00;;;;;;5051518;28;20503;-70
2021/05/26 07:13:54;;;;;;;1.20;0.90;;;11.80;98.00;;;;;;5049043;28;20519;-70
2021/05/26 07:16:20;;;;;;;1.20;1.00;;;11.70;98.00;;;;;;5051024;28;20493;-71
2021/05/26 07:18:48;;;;;;;1.20;1.10;;;11.70;98.00;;;;;;5047521;28;20950;-68
2021/05/26 07:21:16;;;;;;;1.20;0.90;;;11.70;98.00;;;;;;5050667;28;20751;-68
2021/05/26 07:23:43;;;;;;;1.20;1.10;;;11.70;98.00;;;;;;5047987;28;20491;-73
2021/05/26 07:26:09;;;;;;;1.20;0.90;;;11.70;98.00;;;;;;5050050;28;20508;-72
2021/05/26 07:28:36;;;;;;;1.20;1.10;;;11.70;98.00;;;;;;5048462;28;20873;-73
2021/05/26 07:31:03;;;;;;;1.20;1.00;;;11.80;98.00;;;;;;5050435;28;20486;-73
2021/05/26 07:33:30;;;;;;;1.20;0.90;;;12.00;98.00;;;;;;5047691;28;20522;-72
2021/05/26 07:35:56;;;;;;;1.20;0.90;;;12.10;98.00;;;;;;5050336;28;20896;-72
2021/05/26 07:38:24;;;;;;;1.20;1.00;;;12.10;98.00;;;;;;5048184;28;20516;-72
2021/05/26 07:40:50;;;;;;;1.20;1.00;;;12.10;98.00;;;;;;5050373;28;20493;-72
2021/05/26 07:43:19;;;;;;;1.20;1.00;;;12.10;98.00;;;;;;5049814;28;20498;-72
2021/05/26 07:45:45;;;;;;;1.20;0.90;;;12.10;98.00;;;;;;5050445;28;20485;-72
2021/05/26 07:48:12;;;;;;;2.90;1.23;;;12.00;98.00;;;;;;5050200;28;20465;-72
2021/05/26 07:50:39;;;;;;;1.20;0.90;;;12.00;98.00;;;;;;5046590;28;21124;-72
2021/05/26 07:53:06;;;;;;;1.20;0.90;;;11.90;98.00;;;;;;5049672;28;20454;-71
2021/05/26 07:55:33;;;;;;;2.37;1.37;;;11.90;98.00;;;;;;5047951;28;20630;-71
2021/05/26 07:58:00;;;;;;;1.20;0.97;;;12.00;98.00;;;;;;5049949;28;20563;-71
2021/05/26 08:00:26;;;;;;;1.20;1.00;;;11.90;98.00;;;;;;5047835;28;20466;-71
2021/05/26 08:02:53;;;;;;;1.20;0.90;;;12.00;98.00;;;;;;5049686;28;20451;-71
2021/05/26 08:05:21;;;;;;;1.20;1.00;;;12.10;98.00;;;;;;5047707;28;20454;-70
2021/05/26 08:07:48;;;;;;;1.20;1.00;;;12.10;98.00;;;;;;5050008;28;20488;-70
2021/05/26 08:10:15;;;;;;;1.20;0.90;;;12.00;98.00;;;;;;5047994;28;20455;-71
2021/05/26 08:12:43;;;;;;;1.20;1.00;;;12.10;98.00;;;;;;5049688;28;20500;-73
2021/05/26 08:15:10;;;;;;;1.40;1.07;;;12.00;98.00;;;;;;5047474;28;20590;-71
2021/05/26 08:17:37;;;;;;;1.20;1.00;;;11.90;98.00;;;;;;5050028;28;20824;-71
2021/05/26 08:20:05;;;;;;;1.20;1.00;;;11.90;98.00;;;;;;5047504;28;20520;-70
2021/05/26 08:22:34;;;;;;;1.20;0.90;;;12.00;98.00;;;;;;5050518;28;20521;-71
2021/05/26 08:25:01;;;;;;;1.20;0.90;;;12.10;98.00;;;;;;5047839;28;21076;-71
2021/05/26 08:27:27;;;;;;;1.20;1.00;;;12.20;98.00;;;;;;5050625;28;20492;-71
2021/05/26 08:29:55;;;;;;;1.20;0.90;;;12.10;98.00;;;;;;5047239;28;20467;-71
2021/05/26 08:32:22;;;;;;;1.20;1.00;;;12.20;98.00;;;;;;5050030;28;20486;-70
2021/05/26 08:34:49;;;;;;;1.20;1.00;;;12.20;98.00;;;;;;5047852;28;20485;-70
2021/05/26 08:37:16;;;;;;;1.20;0.90;;;12.20;98.00;;;;;;5050547;28;20976;-71
2021/05/26 08:39:43;;;;;;;1.20;0.93;;;12.20;98.00;;;;;;5051640;28;20820;-70
2021/05/26 08:42:10;;;;;;;1.20;1.00;;;12.10;98.00;;;;;;5052937;28;21164;-69
2021/05/26 08:44:37;;;;;;;1.20;1.00;;;12.10;98.00;;;;;;5051704;28;20922;-71
2021/05/26 08:47:04;;;;;;;1.63;1.10;;;12.00;98.00;;;;;;5054330;28;20461;-70
2021/05/26 08:49:32;;;;;;;1.20;1.00;;;12.00;98.00;;;;;;5051388;28;20536;-70
2021/05/26 08:52:02;;;;;;;1.20;0.97;;;11.90;98.00;;;;;;5054454;28;20820;-70
2021/05/26 08:54:32;;;;;;;1.20;0.93;;;11.80;98.00;;;;;;5051466;28;20480;-71
2021/05/26 08:56:59;;;;;;;1.20;1.00;;;11.80;98.00;;;;;;5054289;28;20460;-71
2021/05/26 08:59:30;;;;;;;1.30;1.10;;;11.70;98.00;;;;;;5051708;28;20494;-70
2021/05/26 09:01:57;;;;;;;1.20;1.10;;;11.60;98.00;;;;;;5053815;28;20458;-68
2021/05/26 09:04:29;;;;;;;1.20;1.00;;;11.60;98.00;;;;;;5049869;28;20546;-70
2021/05/26 09:07:10;;;;;;;1.20;1.00;;;11.60;98.00;;;;;;5054272;28;20459;-70
2021/05/26 09:09:49;;;;;;;1.20;1.00;;;11.50;98.00;;;;;;5051046;28;20457;-69
2021/05/26 09:12:23;;;;;;;1.20;0.90;;;11.50;98.00;;;;;;5053936;28;20486;-70
2021/05/26 09:14:50;;;;;;;1.20;1.00;;;11.50;98.00;;;;;;5051222;28;20485;-70
2021/05/26 09:17:16;;;;;;;1.20;0.90;;;11.40;98.00;;;;;;5054110;28;20492;-71
2021/05/26 09:19:44;;;;;;;1.20;0.90;;;11.40;98.00;;;;;;5051249;28;20490;-70
2021/05/26 09:22:11;;;;;;;1.20;1.00;;;11.50;98.00;;;;;;5053541;28;20981;-70
2021/05/26 09:24:37;;;;;;;1.20;0.90;;;11.50;98.00;;;;;;5049686;28;21095;-70
2021/05/26 09:27:05;;;;;;;1.20;0.90;;;11.50;98.00;;;;;;5053829;28;20965;-70
2021/05/26 09:29:33;;;;;;;1.20;1.00;;;11.40;98.00;;;;;;5050729;28;20471;-71
2021/05/26 09:32:21;;;;;;;1.20;1.00;;;11.40;98.00;;;;;;5053954;28;20534;-72
2021/05/26 09:34:49;;;;;;;1.20;1.00;;;11.40;98.00;;;;;;5050715;28;20484;-70
2021/05/26 09:37:18;;;;;;;1.20;1.07;;;11.50;98.00;;;;;;5053825;28;20538;-69
2021/05/26 09:39:52;;;;;;;1.20;1.10;;;11.30;98.00;;;;;;5050826;28;20488;-70
2021/05/26 09:42:38;;;;;;;1.20;1.00;;;11.30;98.00;;;;;;5053185;28;20463;-70
2021/05/26 09:45:15;;;;;;;1.30;1.00;;;11.40;98.00;;;;;;5050124;28;20529;-71
2021/05/26 09:47:43;;;;;;;1.20;1.00;;;11.40;98.00;;;;;;5051537;28;20952;-71
2021/05/26 09:50:33;;;;;;;1.20;1.00;;;11.50;98.00;;;;;;5049378;28;20468;-70
2021/05/26 09:53:02;;;;;;;1.20;0.90;;;11.40;98.00;;;;;;5052707;28;20508;-72
2021/05/26 09:55:30;;;;;;;1.20;0.90;;;11.40;98.00;;;;;;5050226;28;20492;-71
2021/05/26 09:57:58;;;;;;;1.20;0.90;;;11.30;98.00;;;;;;5052954;28;20505;-69
2021/05/26 10:00:26;;;;;;;1.20;0.90;;;11.30;98.00;;;;;;5050201;28;20462;-69
2021/05/26 10:02:52;;;;;;;1.20;1.00;;;11.50;98.00;;;;;;5052674;28;20947;-69
2021/05/26 10:05:20;;;;;;;1.20;0.97;;;11.40;98.00;;;;;;5050083;28;20555;-70
2021/05/26 10:07:51;;;;;;;1.20;0.90;;;11.50;98.00;;;;;;5051583;28;20819;-69
2021/05/26 10:10:19;;;;;;;1.20;1.10;;;11.60;98.00;;;;;;5050102;28;20513;-68
2021/05/26 10:12:52;;;;;;;1.20;1.00;;;11.50;98.00;;;;;;5052593;28;20453;-70
2021/05/26 10:15:22;;;;;;;1.20;0.90;;;11.50;98.00;;;;;;5049704;28;20572;-69
2021/05/26 10:17:51;;;;;;;1.20;0.90;;;11.50;98.00;;;;;;5051834;28;20448;-70
2021/05/26 10:20:21;;;;;;;1.20;0.90;;;11.60;98.00;;;;;;5049866;28;20537;-72
2021/05/26 10:22:50;;;;;;;1.20;1.00;;;11.50;98.00;;;;;;5051336;28;20832;-72
2021/05/26 10:25:18;;;;;;;1.20;0.93;;;11.50;98.00;;;;;;5050066;28;20451;-70
2021/05/26 10:27:48;;;;;;;1.20;0.90;;;11.50;98.00;;;;;;5052740;28;20472;-69
2021/05/26 10:30:19;;;;;;;1.20;0.90;;;11.60;98.00;;;;;;5049631;28;20791;-71
2021/05/26 10:32:55;;;;;;;1.20;0.90;;;11.60;98.00;;;;;;5052287;28;20872;-70
2021/05/26 10:35:23;;;;;;;1.20;0.90;;;11.70;98.00;;;;;;5049885;28;20894;-70
2021/05/26 10:38:04;;;;;;;1.20;1.00;;;11.80;98.00;;;;;;5052414;28;20460;-69
2021/05/26 10:40:39;;;;;;;1.20;0.90;;;11.80;98.00;;;;;;5049667;28;20914;-69
2021/05/26 10:43:37;;;;;;;1.20;1.00;;;11.70;98.00;;;;;;5052064;28;20461;-71
2021/05/26 10:46:05;;;;;;;1.20;0.90;;;11.80;98.00;;;;;;5052164;28;20552;-72
2021/05/26 10:49:09;;;;;;;1.20;1.00;;;11.90;98.00;;;;;;5052171;28;20468;-70
2021/05/26 10:52:09;;;;;;;1.20;0.90;;;11.70;98.00;;;;;;5052192;28;20804;-71
2021/05/26 10:55:02;;;;;;;1.20;1.00;;;11.60;98.00;;;;;;5049375;28;20517;-69
2021/05/26 10:57:30;;;;;;;1.20;1.10;;;11.70;98.00;;;;;;5052121;28;21046;-71
2021/05/26 11:00:30;;;;;;;1.20;1.00;;;11.70;98.00;;;;;;5048759;28;20437;-69
2021/05/26 11:03:40;;;;;;;1.20;0.90;;;11.70;98.00;;;;;;5050622;28;20460;-69
2021/05/26 11:06:36;;;;;;;1.20;1.00;;;11.70;98.00;;;;;;5051709;28;20457;-70
2021/05/26 11:09:06;;;;;;;1.20;0.90;;;11.70;98.00;;;;;;5049237;28;20456;-69
2021/05/26 11:12:06;;;;;;;1.20;1.00;;;11.70;98.00;;;;;;5050774;28;20524;-70
2021/05/26 11:14:40;;;;;;;1.20;0.90;;;11.80;98.00;;;;;;5048589;28;20483;-68
2021/05/26 11:17:40;;;;;;;1.20;0.90;;;11.90;98.00;;;;;;5051669;28;20848;-70
2021/05/26 11:20:18;;;;;;;1.20;1.00;;;12.00;98.00;;;;;;5048986;28;20485;-71
2021/05/26 11:22:45;;;;;;;1.20;0.90;;;12.10;98.00;;;;;;5050900;28;20475;-71
2021/05/26 11:25:13;;;;;;;1.20;1.00;;;12.10;98.00;;;;;;5048698;28;20481;-71
2021/05/26 11:28:05;;;;;;;1.20;0.90;;;12.10;98.00;;;;;;5051662;28;20949;-71
2021/05/26 11:30:31;;;;;;;1.20;0.90;;;12.30;98.00;;;;;;5047885;28;20457;-71
2021/05/26 11:33:01;;;;;;;1.20;1.10;;;12.40;98.00;;;;;;5051015;28;20492;-71
2021/05/26 11:35:28;;;;;;;1.20;0.90;;;12.50;98.00;;;;;;5048499;28;20888;-71
2021/05/26 11:37:55;;;;;;;1.20;0.90;;;12.40;98.00;;;;;;5050691;28;20465;-71
2021/05/26 11:40:26;;;;;;;1.20;0.90;;;12.30;98.00;;;;;;5047396;28;20460;-71
2021/05/26 11:42:53;;;;;;;1.20;1.00;;;12.20;98.00;;;;;;5050903;28;20553;-72
2021/05/26 11:45:22;;;;;;;1.20;1.00;;;12.30;98.00;;;;;;5048524;28;20778;-71
2021/05/26 11:47:49;;;;;;;1.20;1.00;;;12.30;98.00;;;;;;5051018;28;20948;-71
2021/05/26 11:50:32;;;;;;;2.47;1.00;;;12.50;98.00;;;;;;5048392;28;20574;-70
2021/05/26 11:53:18;;;;;;;1.20;1.00;;;12.50;98.00;;;;;;5050887;28;21212;-70
2021/05/26 11:55:47;;;;;;;1.20;0.93;;;12.50;98.00;;;;;;5048823;28;20458;-71
2021/05/26 11:58:15;;;;;;;1.20;0.90;;;12.40;98.00;;;;;;5051067;28;20473;-70
2021/05/26 12:00:42;;;;;;;1.20;1.00;;;12.50;98.00;;;;;;5048763;28;20461;-71
2021/05/26 12:03:12;;;;;;;1.20;1.00;;;12.50;98.00;;;;;;5050860;28;20460;-71
2021/05/26 12:05:43;;;;;;;1.20;1.00;;;12.60;98.00;;;;;;5047964;28;20454;-71
2021/05/26 12:08:17;;;;;;;1.20;0.97;;;12.70;98.00;;;;;;5051238;28;20548;-71
2021/05/26 12:10:45;;;;;;;1.50;1.10;;;12.60;98.00;;;;;;5047987;28;21038;-70
2021/05/26 12:13:17;;;;;;;1.20;0.90;;;12.60;98.00;;;;;;5054242;28;20472;-68
2021/05/26 12:15:44;;;;;;;1.20;1.00;;;12.60;98.00;;;;;;5052084;28;20490;-69
2021/05/26 12:18:14;;;;;;;1.30;1.10;;;12.60;98.00;;;;;;5054923;28;20986;-70
2021/05/26 12:20:48;;;;;;;1.20;1.00;;;12.90;98.00;;;;;;5052257;28;20537;-68
2021/05/26 12:23:15;;;;;;;1.50;1.00;;;13.50;98.00;;;;;;5053905;28;20823;-69
2021/05/26 12:25:47;;;;;;;1.20;0.97;;;13.70;98.00;;;;;;5051579;28;20499;-70
2021/05/26 12:28:20;;;;;;;1.20;1.00;;;13.60;98.00;;;;;;5054332;28;20494;-68
2021/05/26 12:30:48;;;;;;;1.40;1.30;;;13.60;98.00;;;;;;5050422;28;20524;-68
2021/05/26 12:33:17;;;;;;;1.20;1.00;;;13.70;98.00;;;;;;5054478;28;20495;-68
2021/05/26 12:35:44;;;;;;;1.20;0.90;;;13.60;98.00;;;;;;5051712;28;20483;-68
2021/05/26 12:38:18;;;;;;;1.20;0.90;;;13.60;98.00;;;;;;5054856;28;20488;-69
2021/05/26 12:40:46;;;;;;;1.20;1.00;;;13.60;98.00;;;;;;5051642;28;20459;-69
2021/05/26 12:43:28;;;;;;;1.20;0.90;;;13.70;98.00;;;;;;5054202;28;20455;-68
2021/05/26 12:45:56;;;;;;;1.20;1.00;;;13.90;98.00;;;;;;5051946;28;20554;-67
2021/05/26 12:48:25;;;;;;;1.50;1.20;;;14.00;98.00;;;;;;5054271;28;20459;-69
2021/05/26 12:50:52;;;;;;;1.20;1.00;;;14.10;98.00;;;;;;5051727;28;20550;-69
2021/05/26 12:53:18;;;;;;;1.20;1.00;;;14.20;98.00;;;;;;5053822;28;20513;-68
2021/05/26 12:55:45;;;;;;;1.20;1.00;;;14.10;98.00;;;;;;5051652;28;21041;-69
2021/05/26 12:58:15;;;;;;;1.20;1.00;;;14.30;98.00;;;;;;5054418;28;21008;-70